Time;durP1;ratioP1;P1;durP2;ratioP2;P2;SDS_P1;SDS_P2;PMS_P1;PMS_P2;Temp;Humidity;BMP_temperature;BMP_pressure;BME280_temperature;BME280_humidity;BME280_pressure;Samples;Min_cycle;Max_cycle;Signal;HPM_P1;HPM_P2
2024/02/22 00:00:10;;;;;;;2.00;0.97;;;22.60;60.40;;;;;;5116456;28;20795;-84
2024/02/22 00:02:38;;;;;;;1.50;0.87;;;22.60;60.40;;;;;;5115730;28;20450;-85
2024/02/22 00:05:05;;;;;;;1.73;1.00;;;22.60;60.50;;;;;;5116029;28;20817;-88
2024/02/22 00:07:32;;;;;;;1.60;1.00;;;22.60;60.50;;;;;;5115524;28;20462;-85
2024/02/22 00:10:02;;;;;;;1.40;0.80;;;22.60;60.50;;;;;;5116748;28;20438;-83
2024/02/22 00:12:29;;;;;;;1.50;0.90;;;22.60;60.60;;;;;;5116402;28;20502;-84
2024/02/22 00:14:56;;;;;;;1.70;1.00;;;22.60;60.60;;;;;;5116600;28;20504;-85
2024/02/22 00:17:24;;;;;;;2.10;1.27;;;22.50;60.50;;;;;;5114995;28;20438;-84
2024/02/22 00:19:51;;;;;;;1.30;0.70;;;22.50;60.50;;;;;;5116629;28;20495;-85
2024/02/22 00:22:18;;;;;;;1.90;0.93;;;22.50;60.50;;;;;;5116281;28;20457;-84
2024/02/22 00:24:45;;;;;;;1.73;0.90;;;22.50;60.50;;;;;;5124086;28;20423;-85
2024/02/22 00:27:13;;;;;;;2.37;1.00;;;22.50;60.60;;;;;;5137499;28;20464;-85
2024/02/22 00:29:39;;;;;;;1.70;0.80;;;22.50;60.60;;;;;;5133680;28;20479;-90
2024/02/22 00:32:09;;;;;;;1.40;0.80;;;22.50;60.60;;;;;;5116400;28;20785;-87
2024/02/22 00:34:35;;;;;;;1.97;1.00;;;22.50;60.70;;;;;;5116571;28;20486;-85
2024/02/22 00:37:02;;;;;;;1.70;0.90;;;22.50;60.70;;;;;;5116261;28;20463;-85
2024/02/22 00:39:29;;;;;;;1.40;0.80;;;22.60;60.70;;;;;;5116224;28;20796;-86
2024/02/22 00:41:56;;;;;;;1.50;0.80;;;22.50;60.70;;;;;;5115789;28;20431;-87
2024/02/22 00:44:24;;;;;;;2.47;0.80;;;22.50;60.70;;;;;;5116045;28;20447;-83
2024/02/22 00:46:52;;;;;;;1.70;0.90;;;22.50;60.70;;;;;;5116201;28;20431;-85
2024/02/22 00:49:19;;;;;;;2.60;1.10;;;22.50;60.70;;;;;;5116013;28;20852;-85
2024/02/22 00:51:46;;;;;;;1.60;0.90;;;22.50;60.70;;;;;;5115760;28;20478;-90
2024/02/22 00:54:13;;;;;;;1.70;0.87;;;22.50;61.60;;;;;;5115945;28;20521;-90
2024/02/22 00:56:40;;;;;;;1.40;0.80;;;22.50;60.70;;;;;;5116066;28;20438;-86
2024/02/22 00:59:07;;;;;;;1.50;0.90;;;22.50;60.70;;;;;;5115609;28;20438;-85
2024/02/22 01:01:35;;;;;;;1.57;1.00;;;22.40;61.50;;;;;;5115789;28;20435;-85
2024/02/22 01:04:02;;;;;;;1.60;1.00;;;22.50;60.70;;;;;;5115469;28;20431;-85
2024/02/22 01:06:29;;;;;;;1.50;0.80;;;22.40;60.60;;;;;;5115213;28;20457;-85
2024/02/22 01:08:55;;;;;;;1.50;0.80;;;22.50;60.80;;;;;;5114919;28;20996;-84
2024/02/22 01:11:22;;;;;;;1.40;0.70;;;22.40;60.70;;;;;;5114851;28;20943;-85
2024/02/22 01:13:49;;;;;;;1.50;0.90;;;22.40;60.70;;;;;;5114957;28;20470;-85
2024/02/22 01:16:17;;;;;;;1.77;0.80;;;22.40;60.80;;;;;;5114767;28;20474;-84
2024/02/22 01:18:46;;;;;;;1.50;0.80;;;22.40;60.80;;;;;;5114899;28;20462;-86
2024/02/22 01:21:12;;;;;;;1.67;0.90;;;22.40;60.80;;;;;;5114885;28;20526;-91
2024/02/22 01:23:39;;;;;;;1.47;0.80;;;22.40;60.80;;;;;;5114954;28;20443;-85
2024/02/22 01:26:06;;;;;;;1.50;0.80;;;22.40;61.80;;;;;;5115050;28;20445;-90
2024/02/22 01:28:33;;;;;;;1.60;1.00;;;22.40;60.90;;;;;;5114891;28;20839;-84
2024/02/22 01:31:01;;;;;;;1.50;0.80;;;22.40;60.90;;;;;;5114858;28;20438;-89
2024/02/22 01:33:28;;;;;;;1.50;1.00;;;22.40;60.90;;;;;;5114513;28;20795;-84
2024/02/22 01:35:56;;;;;;;1.40;0.80;;;22.40;60.90;;;;;;5114411;28;20451;-88
2024/02/22 01:38:23;;;;;;;1.97;0.90;;;22.40;60.90;;;;;;5115261;28;20770;-85
2024/02/22 01:40:50;;;;;;;1.90;0.90;;;22.40;60.90;;;;;;5114786;28;20434;-85
2024/02/22 01:43:16;;;;;;;1.60;0.97;;;22.40;60.80;;;;;;5114282;28;20430;-84
2024/02/22 01:45:43;;;;;;;1.67;0.90;;;22.40;61.70;;;;;;5114907;28;20533;-85
2024/02/22 01:48:10;;;;;;;1.63;1.00;;;22.40;60.80;;;;;;5115052;28;20955;-85
2024/02/22 01:50:39;;;;;;;1.60;0.90;;;22.40;60.80;;;;;;5114488;28;20463;-85
2024/02/22 01:53:09;;;;;;;1.73;0.90;;;22.40;60.80;;;;;;5115141;28;20505;-83
2024/02/22 01:55:37;;;;;;;1.30;0.70;;;22.50;60.80;;;;;;5115076;28;20439;-89
2024/02/22 01:58:04;;;;;;;1.80;1.00;;;22.50;60.80;;;;;;5124699;28;20418;-85
2024/02/22 02:00:32;;;;;;;1.57;0.80;;;22.40;60.70;;;;;;5122595;28;20445;-83
2024/02/22 02:02:59;;;;;;;1.60;0.90;;;22.50;60.70;;;;;;5133102;28;21061;-83
2024/02/22 02:05:26;;;;;;;1.50;0.80;;;22.50;60.70;;;;;;5131502;28;20490;-84
2024/02/22 02:07:53;;;;;;;1.57;0.80;;;22.50;60.70;;;;;;5128952;28;20437;-83
2024/02/22 02:10:21;;;;;;;1.50;0.90;;;22.50;60.70;;;;;;5115520;28;20482;-84
2024/02/22 02:12:48;;;;;;;1.47;0.80;;;22.50;60.70;;;;;;5114666;28;20431;-83
2024/02/22 02:15:15;;;;;;;1.60;0.87;;;22.50;60.60;;;;;;5114185;28;20443;-89
2024/02/22 02:17:43;;;;;;;1.40;0.70;;;22.50;60.60;;;;;;5114381;28;20435;-88
2024/02/22 02:20:11;;;;;;;1.50;0.90;;;22.50;60.60;;;;;;5114190;28;20953;-84
2024/02/22 02:23:00;;;;;;;1.40;0.70;;;22.50;60.50;;;;;;5114711;28;20435;-84
2024/02/22 02:25:30;;;;;;;1.87;0.80;;;22.50;60.40;;;;;;5115082;28;20445;-88
2024/02/22 02:27:57;;;;;;;1.50;0.80;;;22.50;60.50;;;;;;5116064;28;20434;-84
2024/02/22 02:30:24;;;;;;;1.90;0.80;;;22.50;60.50;;;;;;5114706;28;20482;-84
2024/02/22 02:32:50;;;;;;;1.50;0.73;;;22.50;60.40;;;;;;5114614;28;20439;-85
2024/02/22 02:35:17;;;;;;;1.50;0.90;;;22.50;60.40;;;;;;5114162;28;20529;-84
2024/02/22 02:37:44;;;;;;;1.40;0.80;;;22.60;60.50;;;;;;5113871;28;20470;-84
2024/02/22 02:40:12;;;;;;;1.50;0.90;;;22.60;60.50;;;;;;5116790;28;20434;-84
2024/02/22 02:42:41;;;;;;;1.60;0.80;;;22.60;60.50;;;;;;5117910;28;20434;-84
2024/02/22 02:45:08;;;;;;;1.30;0.70;;;22.60;60.50;;;;;;5117924;28;20438;-91
2024/02/22 02:47:35;;;;;;;1.50;0.83;;;22.60;60.50;;;;;;5118057;28;20924;-89
2024/02/22 02:50:02;;;;;;;2.03;0.80;;;22.50;60.40;;;;;;5119370;28;20494;-90
2024/02/22 02:52:29;;;;;;;1.40;0.80;;;22.50;60.40;;;;;;5118256;28;20431;-84
2024/02/22 02:54:55;;;;;;;1.40;0.70;;;22.60;60.50;;;;;;5117805;28;20449;-90
2024/02/22 02:57:22;;;;;;;1.50;0.80;;;22.60;60.60;;;;;;5117952;28;20433;-84
2024/02/22 02:59:52;;;;;;;1.50;0.70;;;22.50;60.40;;;;;;5117540;28;20925;-84
2024/02/22 03:02:20;;;;;;;1.50;0.77;;;22.50;60.40;;;;;;5117710;28;20431;-84
2024/02/22 03:04:47;;;;;;;1.37;0.60;;;22.60;60.50;;;;;;5117492;28;20437;-84
2024/02/22 03:07:14;;;;;;;1.40;0.80;;;22.60;60.50;;;;;;5117500;28;20458;-84
2024/02/22 03:09:41;;;;;;;1.40;0.70;;;22.50;60.50;;;;;;5117794;28;20490;-84
2024/02/22 03:12:08;;;;;;;1.63;0.80;;;22.60;60.50;;;;;;5117834;28;20435;-83
2024/02/22 03:14:35;;;;;;;1.50;0.80;;;22.60;60.50;;;;;;5117555;28;20434;-83
2024/02/22 03:17:03;;;;;;;1.37;0.70;;;22.60;60.50;;;;;;5117576;28;20470;-83
2024/02/22 03:19:31;;;;;;;1.50;0.83;;;22.60;60.50;;;;;;5117238;28;20782;-84
2024/02/22 03:21:59;;;;;;;1.50;0.77;;;22.60;60.50;;;;;;5117434;28;20447;-83
2024/02/22 03:24:26;;;;;;;1.40;0.70;;;22.60;60.50;;;;;;5117825;28;20949;-84
2024/02/22 03:26:53;;;;;;;1.47;0.77;;;22.70;60.60;;;;;;5117426;28;20513;-89
2024/02/22 03:29:21;;;;;;;1.40;0.80;;;22.60;60.50;;;;;;5117849;28;20504;-83
2024/02/22 03:31:48;;;;;;;1.40;0.80;;;22.60;60.50;;;;;;5123327;28;20438;-84
2024/02/22 03:34:16;;;;;;;1.40;0.80;;;22.60;60.50;;;;;;5141032;28;20435;-84
2024/02/22 03:36:45;;;;;;;1.37;0.70;;;22.50;60.40;;;;;;5137680;28;20481;-84
2024/02/22 03:39:12;;;;;;;1.40;0.60;;;22.70;60.60;;;;;;5116718;28;20445;-83
2024/02/22 03:41:39;;;;;;;1.40;0.80;;;22.60;60.50;;;;;;5116993;28;20443;-84
2024/02/22 03:44:06;;;;;;;1.50;0.70;;;22.60;60.50;;;;;;5117012;28;20431;-83
2024/02/22 03:46:32;;;;;;;1.30;0.60;;;22.50;60.40;;;;;;5116786;28;20446;-83
2024/02/22 03:48:59;;;;;;;1.60;0.70;;;22.50;60.40;;;;;;5115050;28;20532;-83
2024/02/22 03:51:27;;;;;;;1.33;0.70;;;22.60;60.50;;;;;;5096144;28;20468;-84
2024/02/22 03:53:54;;;;;;;1.50;0.70;;;22.60;60.50;;;;;;5094943;28;20482;-84
2024/02/22 03:56:21;;;;;;;1.40;0.70;;;22.60;60.50;;;;;;5095992;28;20446;-85
2024/02/22 03:58:48;;;;;;;1.40;0.77;;;22.70;60.60;;;;;;5095782;28;20420;-84
2024/02/22 04:01:15;;;;;;;1.40;0.70;;;22.60;60.50;;;;;;5096267;28;20431;-85
2024/02/22 04:03:41;;;;;;;1.50;0.77;;;22.60;60.50;;;;;;5096318;28;20787;-84
2024/02/22 04:06:08;;;;;;;1.50;0.70;;;22.60;60.40;;;;;;5095827;28;20989;-84
2024/02/22 04:08:36;;;;;;;1.40;0.77;;;22.70;60.50;;;;;;5095107;28;20575;-85
2024/02/22 04:11:03;;;;;;;1.40;0.70;;;22.60;60.40;;;;;;5095987;28;20489;-84
2024/02/22 04:13:30;;;;;;;1.33;0.70;;;22.60;60.50;;;;;;5096137;28;20446;-84
2024/02/22 04:15:57;;;;;;;1.30;0.60;;;22.60;60.50;;;;;;5095846;28;20923;-84
2024/02/22 04:18:24;;;;;;;1.60;0.70;;;22.60;60.50;;;;;;5095896;28;20442;-84
2024/02/22 04:20:50;;;;;;;1.40;0.70;;;22.60;60.50;;;;;;5095653;28;20450;-85
2024/02/22 04:23:17;;;;;;;1.40;0.70;;;22.50;60.50;;;;;;5095525;28;20997;-85
2024/02/22 04:25:46;;;;;;;1.40;0.70;;;22.50;60.40;;;;;;5096386;28;20543;-84
2024/02/22 04:28:17;;;;;;;1.40;0.70;;;22.60;60.60;;;;;;5096528;28;20439;-87
2024/02/22 04:30:44;;;;;;;1.43;0.80;;;22.50;60.50;;;;;;5095420;28;20501;-88
2024/02/22 04:33:12;;;;;;;1.80;0.87;;;22.50;60.50;;;;;;5096021;28;20818;-83
2024/02/22 04:35:40;;;;;;;1.47;0.90;;;22.50;60.50;;;;;;5095949;28;20471;-90
2024/02/22 04:38:08;;;;;;;2.00;1.00;;;22.50;60.50;;;;;;5095544;28;20465;-88
2024/02/22 04:40:35;;;;;;;1.40;0.70;;;22.50;60.50;;;;;;5095628;28;20451;-83
2024/02/22 04:43:04;;;;;;;1.40;0.63;;;22.50;60.50;;;;;;5095302;28;20449;-84
2024/02/22 04:45:30;;;;;;;2.90;0.70;;;22.50;60.50;;;;;;5095430;28;20538;-84
2024/02/22 04:47:57;;;;;;;1.40;0.70;;;22.60;60.50;;;;;;5095781;28;20538;-84
2024/02/22 04:50:24;;;;;;;1.30;0.70;;;22.60;60.60;;;;;;5094789;28;20491;-84
2024/02/22 04:52:51;;;;;;;1.40;0.70;;;22.60;60.60;;;;;;5095267;28;20446;-84
2024/02/22 04:55:18;;;;;;;1.30;0.70;;;22.50;60.50;;;;;;5095448;28;20443;-89
2024/02/22 04:57:46;;;;;;;1.70;0.70;;;22.60;60.50;;;;;;5095252;28;20442;-83
2024/02/22 05:00:15;;;;;;;1.50;0.70;;;22.50;60.50;;;;;;5095453;28;20940;-86
2024/02/22 05:02:43;;;;;;;1.40;0.70;;;22.60;61.40;;;;;;5094414;28;20446;-84
2024/02/22 05:05:10;;;;;;;1.40;0.80;;;22.60;60.50;;;;;;5096625;28;20447;-83
2024/02/22 05:07:37;;;;;;;1.80;0.80;;;22.60;60.40;;;;;;5097890;28;20443;-84
2024/02/22 05:10:06;;;;;;;1.43;0.77;;;22.60;60.40;;;;;;5096651;28;20489;-82
2024/02/22 05:12:33;;;;;;;1.40;0.73;;;22.60;60.40;;;;;;5085720;28;20437;-84
2024/02/22 05:15:00;;;;;;;1.40;0.70;;;22.60;60.40;;;;;;5081904;28;20915;-83
2024/02/22 05:17:28;;;;;;;1.30;0.63;;;22.60;60.40;;;;;;5083755;28;20436;-83
2024/02/22 05:19:56;;;;;;;2.63;0.70;;;22.60;60.40;;;;;;5095240;28;20935;-84
2024/02/22 05:22:23;;;;;;;1.50;0.80;;;22.60;60.40;;;;;;5095888;28;20475;-84
2024/02/22 05:24:50;;;;;;;1.40;0.70;;;22.60;60.30;;;;;;5094850;28;20775;-85
2024/02/22 05:27:17;;;;;;;1.40;0.77;;;22.70;60.40;;;;;;5094598;28;20438;-84
2024/02/22 05:29:43;;;;;;;1.30;0.60;;;22.70;60.40;;;;;;5094209;28;20479;-84
2024/02/22 05:32:10;;;;;;;1.30;0.60;;;22.70;60.30;;;;;;5095162;28;20439;-83
2024/02/22 05:34:38;;;;;;;1.50;0.70;;;22.70;60.30;;;;;;5095244;28;20961;-85
2024/02/22 05:37:11;;;;;;;1.30;0.60;;;22.70;60.30;;;;;;5094988;28;20459;-85
2024/02/22 05:39:38;;;;;;;1.30;0.70;;;22.70;60.30;;;;;;5095415;28;20436;-85
2024/02/22 05:42:05;;;;;;;1.60;0.70;;;22.70;60.30;;;;;;5095361;28;20901;-82
2024/02/22 05:44:32;;;;;;;1.50;0.73;;;22.70;60.30;;;;;;5096274;28;20518;-90
2024/02/22 05:46:59;;;;;;;1.50;0.73;;;22.70;60.30;;;;;;5095135;28;20483;-84
2024/02/22 05:49:26;;;;;;;1.50;0.70;;;22.70;60.30;;;;;;5094561;28;20450;-84
2024/02/22 05:51:54;;;;;;;1.30;0.60;;;22.70;60.30;;;;;;5094616;28;20530;-84
2024/02/22 05:54:22;;;;;;;1.30;0.70;;;22.70;60.40;;;;;;5094953;28;20851;-85
2024/02/22 05:56:49;;;;;;;1.30;0.60;;;22.70;60.30;;;;;;5094625;28;20972;-85
2024/02/22 05:59:16;;;;;;;1.40;0.60;;;22.70;60.40;;;;;;5094356;28;20473;-85
2024/02/22 06:01:43;;;;;;;1.50;0.70;;;22.70;60.40;;;;;;5094568;28;20435;-91
2024/02/22 06:04:11;;;;;;;1.37;0.60;;;22.70;60.40;;;;;;5094705;28;20435;-87
2024/02/22 06:06:38;;;;;;;1.87;0.73;;;22.70;60.40;;;;;;5094780;28;20462;-89
2024/02/22 06:09:08;;;;;;;1.30;0.60;;;22.70;60.40;;;;;;5094152;28;20431;-85
2024/02/22 06:11:34;;;;;;;1.40;0.70;;;22.70;60.40;;;;;;5095464;28;20953;-86
2024/02/22 06:14:01;;;;;;;1.40;0.70;;;22.80;60.50;;;;;;5093257;28;20523;-85
2024/02/22 06:16:28;;;;;;;1.40;0.70;;;22.80;60.50;;;;;;5095136;28;20431;-90
2024/02/22 06:18:55;;;;;;;1.40;0.70;;;22.80;60.60;;;;;;5095511;28;20446;-84
2024/02/22 06:21:22;;;;;;;1.50;0.70;;;22.80;60.60;;;;;;5093916;28;20499;-89
2024/02/22 06:23:48;;;;;;;1.30;0.60;;;22.80;60.70;;;;;;5094170;28;20431;-89
2024/02/22 06:26:16;;;;;;;1.30;0.60;;;22.80;60.70;;;;;;5093833;28;20443;-85
2024/02/22 06:28:43;;;;;;;1.40;0.70;;;22.80;60.70;;;;;;5093906;28;20811;-90
2024/02/22 06:31:10;;;;;;;1.40;0.70;;;22.80;60.70;;;;;;5093841;28;20505;-90
2024/02/22 06:33:39;;;;;;;1.30;0.60;;;22.80;60.60;;;;;;5094296;28;20782;-86
2024/02/22 06:36:08;;;;;;;1.60;0.77;;;22.80;60.70;;;;;;5093872;28;20497;-86
2024/02/22 06:38:35;;;;;;;1.37;0.70;;;22.80;60.70;;;;;;5094202;28;20439;-85
2024/02/22 06:41:01;;;;;;;1.40;0.70;;;22.80;60.70;;;;;;5094244;28;20440;-86
2024/02/22 06:43:29;;;;;;;1.37;0.70;;;22.80;60.70;;;;;;5115954;28;20530;-86
2024/02/22 06:45:56;;;;;;;1.53;0.70;;;22.90;60.80;;;;;;5108312;28;20530;-83
2024/02/22 06:48:23;;;;;;;1.50;0.70;;;22.80;60.70;;;;;;5098368;28;20438;-82
2024/02/22 06:50:50;;;;;;;1.50;0.70;;;22.80;60.80;;;;;;5100669;28;20484;-85
2024/02/22 06:53:16;;;;;;;1.30;0.70;;;22.80;60.80;;;;;;5094392;28;20447;-90
2024/02/22 06:55:43;;;;;;;1.40;0.70;;;22.80;60.80;;;;;;5088950;28;20547;-84
2024/02/22 06:58:10;;;;;;;1.40;0.80;;;22.80;60.80;;;;;;5073380;28;20440;-84
2024/02/22 07:00:38;;;;;;;1.40;0.70;;;22.80;60.80;;;;;;5090946;28;20448;-85
2024/02/22 07:03:06;;;;;;;1.77;0.70;;;22.80;60.80;;;;;;5093356;28;20957;-84
2024/02/22 07:05:33;;;;;;;2.27;0.70;;;22.90;60.80;;;;;;5093056;28;21035;-86
2024/02/22 07:08:00;;;;;;;1.30;0.60;;;22.90;61.50;;;;;;5093494;28;20447;-83
2024/02/22 07:10:27;;;;;;;1.30;0.70;;;22.90;60.50;;;;;;5092814;28;20475;-84
2024/02/22 07:12:55;;;;;;;1.30;0.70;;;22.90;60.70;;;;;;5093563;28;20451;-84
2024/02/22 07:15:22;;;;;;;1.60;0.60;;;22.90;60.90;;;;;;5093000;28;20517;-84
2024/02/22 07:17:50;;;;;;;1.40;0.70;;;22.90;61.00;;;;;;5082857;28;20523;-85
2024/02/22 07:20:17;;;;;;;2.70;0.93;;;22.90;61.00;;;;;;5088305;28;20443;-85
2024/02/22 07:22:45;;;;;;;3.70;1.00;;;22.90;61.10;;;;;;5092697;28;20432;-83
2024/02/22 07:25:12;;;;;;;3.70;1.57;;;22.90;61.20;;;;;;5093278;28;20446;-84
2024/02/22 07:27:40;;;;;;;2.17;0.87;;;22.80;61.20;;;;;;5086790;28;20437;-83
2024/02/22 07:30:08;;;;;;;4.80;0.97;;;22.80;61.30;;;;;;5076492;28;20472;-86
2024/02/22 07:32:35;;;;;;;3.10;1.00;;;22.80;61.30;;;;;;5076830;28;20510;-94
2024/02/22 07:35:04;;;;;;;4.10;1.13;;;22.80;61.50;;;;;;5076396;28;20440;-84
2024/02/22 07:37:30;;;;;;;2.73;0.93;;;22.80;61.60;;;;;;5093424;28;20800;-82
2024/02/22 07:39:57;;;;;;;1.60;0.83;;;22.80;61.60;;;;;;5095492;28;20744;-79
2024/02/22 07:42:24;;;;;;;2.80;1.13;;;22.80;61.60;;;;;;5079268;28;20441;-79
2024/02/22 07:44:52;;;;;;;5.20;1.20;;;22.80;61.70;;;;;;5095210;28;20435;-86
2024/02/22 07:47:19;;;;;;;2.77;1.20;;;22.80;61.80;;;;;;5096536;28;20443;-80
2024/02/22 07:49:46;;;;;;;2.43;0.90;;;22.80;61.80;;;;;;5084531;28;20474;-85
2024/02/22 07:52:14;;;;;;;3.13;1.20;;;22.80;61.80;;;;;;5113289;28;20490;-81
2024/02/22 07:54:41;;;;;;;4.10;0.97;;;22.90;62.00;;;;;;5094798;28;20439;-85
2024/02/22 07:57:08;;;;;;;2.27;1.10;;;22.90;61.90;;;;;;5075309;28;20436;-80
2024/02/22 07:59:35;;;;;;;11.27;2.27;;;22.90;62.00;;;;;;5084288;28;20840;-88
2024/02/22 08:02:02;;;;;;;12.73;1.50;;;22.90;62.00;;;;;;5105045;28;20453;-79
2024/02/22 08:04:28;;;;;;;5.17;1.60;;;22.90;62.00;;;;;;5110973;28;20447;-83
2024/02/22 08:06:55;;;;;;;3.20;1.10;;;23.00;62.00;;;;;;5114394;28;20456;-81
2024/02/22 08:09:23;;;;;;;8.67;1.20;;;22.80;61.90;;;;;;5097763;28;20439;-79
2024/02/22 08:11:50;;;;;;;2.37;1.07;;;22.90;61.70;;;;;;5095870;28;20988;-79
2024/02/22 08:14:17;;;;;;;5.70;1.80;;;22.90;61.60;;;;;;5093722;28;20440;-80
2024/02/22 08:16:44;;;;;;;2.40;1.00;;;22.90;61.70;;;;;;5107321;28;20952;-81
2024/02/22 08:19:11;;;;;;;7.43;1.17;;;22.90;61.70;;;;;;5105312;28;20452;-81
2024/02/22 08:21:37;;;;;;;3.70;1.37;;;22.90;61.80;;;;;;5113136;28;20449;-82
2024/02/22 08:24:04;;;;;;;9.90;1.20;;;22.90;61.70;;;;;;5104637;28;20436;-83
2024/02/22 08:26:33;;;;;;;4.47;1.10;;;22.90;61.70;;;;;;5095539;28;20431;-82
2024/02/22 08:28:59;;;;;;;5.23;1.00;;;22.90;61.80;;;;;;5106610;28;20457;-80
2024/02/22 08:31:26;;;;;;;3.20;1.10;;;22.90;61.80;;;;;;5116174;28;20494;-80
2024/02/22 08:33:53;;;;;;;4.47;1.33;;;22.90;61.40;;;;;;5114070;28;20445;-81
2024/02/22 08:36:20;;;;;;;4.40;1.13;;;22.90;61.60;;;;;;5101755;28;20988;-93
2024/02/22 08:38:48;;;;;;;4.47;0.97;;;22.90;61.70;;;;;;5103494;28;20461;-78
2024/02/22 08:41:15;;;;;;;5.20;1.20;;;22.90;61.90;;;;;;5096780;28;20957;-81
2024/02/22 08:43:43;;;;;;;2.63;1.40;;;22.90;61.40;;;;;;5097466;28;20452;-80
2024/02/22 08:46:10;;;;;;;7.17;2.23;;;22.90;62.00;;;;;;5094240;28;20918;-80
2024/02/22 08:48:37;;;;;;;6.50;2.53;;;22.90;62.70;;;;;;5098951;28;20450;-82
2024/02/22 08:51:04;;;;;;;6.73;1.93;;;22.90;62.60;;;;;;5095250;28;20494;-80
2024/02/22 08:53:31;;;;;;;4.13;2.30;;;22.90;62.50;;;;;;5095145;28;20773;-82
2024/02/22 08:55:58;;;;;;;5.67;2.03;;;22.90;62.40;;;;;;5095313;28;20494;-80
2024/02/22 08:58:25;;;;;;;10.83;4.67;;;22.90;62.40;;;;;;5094985;28;20435;-91
2024/02/22 09:00:53;;;;;;;17.27;5.47;;;22.90;62.90;;;;;;5095220;28;20439;-87
2024/02/22 09:03:20;;;;;;;12.90;5.73;;;23.00;63.90;;;;;;5095152;28;20454;-91
2024/02/22 09:05:46;;;;;;;17.43;8.13;;;23.00;64.40;;;;;;5095232;28;20466;-81
2024/02/22 09:08:13;;;;;;;26.93;8.10;;;23.00;65.20;;;;;;5095179;28;20432;-80
2024/02/22 09:10:40;;;;;;;25.47;6.70;;;23.00;64.90;;;;;;5097355;28;20795;-89
2024/02/22 09:13:07;;;;;;;28.07;10.00;;;23.00;64.70;;;;;;5097704;28;20439;-80
2024/02/22 09:15:34;;;;;;;23.97;9.90;;;23.00;64.90;;;;;;5097463;28;20443;-84
2024/02/22 09:18:03;;;;;;;29.13;10.67;;;23.10;65.80;;;;;;5097028;28;20491;-80
2024/02/22 09:20:30;;;;;;;36.60;15.40;;;23.10;65.70;;;;;;5095781;28;20443;-84
2024/02/22 09:22:57;;;;;;;49.27;17.57;;;23.10;66.10;;;;;;5096153;28;20436;-83
2024/02/22 09:25:23;;;;;;;44.07;17.70;;;23.10;66.60;;;;;;5096135;28;20446;-85
2024/02/22 09:27:50;;;;;;;28.10;11.87;;;23.10;67.40;;;;;;5095378;28;20856;-80
2024/02/22 09:30:17;;;;;;;23.10;8.20;;;23.10;64.80;;;;;;5094043;28;21035;-82
2024/02/22 09:32:44;;;;;;;28.23;7.20;;;23.00;63.20;;;;;;5094120;28;20497;-83
2024/02/22 09:35:12;;;;;;;12.30;5.40;;;23.00;62.90;;;;;;5094411;28;20463;-81
2024/02/22 09:37:39;;;;;;;20.07;5.57;;;23.00;62.60;;;;;;5094873;28;20447;-86
2024/02/22 09:40:07;;;;;;;15.20;5.00;;;23.00;62.40;;;;;;5095070;28;20440;-82
2024/02/22 09:42:34;;;;;;;17.70;5.73;;;22.90;61.80;;;;;;5094630;28;20451;-83
2024/02/22 09:45:02;;;;;;;16.23;5.67;;;22.90;61.70;;;;;;5095045;28;20444;-83
2024/02/22 09:47:29;;;;;;;10.07;4.17;;;22.90;61.90;;;;;;5094902;28;20435;-83
2024/02/22 09:49:56;;;;;;;8.73;4.70;;;22.90;61.80;;;;;;5094460;28;20467;-83
2024/02/22 09:52:25;;;;;;;16.53;5.07;;;22.90;61.70;;;;;;5094793;28;20990;-83
2024/02/22 09:54:51;;;;;;;13.50;4.63;;;22.90;61.50;;;;;;5095306;28;20528;-85
2024/02/22 09:57:18;;;;;;;9.07;4.70;;;22.90;62.10;;;;;;5113460;28;20502;-83
2024/02/22 09:59:49;;;;;;;9.50;3.80;;;22.90;61.60;;;;;;5113744;28;20466;-84
2024/02/22 10:02:16;;;;;;;13.47;4.47;;;22.90;61.30;;;;;;5097121;28;20435;-83
2024/02/22 10:04:53;;;;;;;7.63;3.00;;;22.90;61.30;;;;;;5094836;28;20447;-83
2024/02/22 10:07:25;;;;;;;9.80;3.87;;;22.90;61.20;;;;;;5094150;28;20445;-84
2024/02/22 10:09:52;;;;;;;8.07;3.03;;;22.90;61.20;;;;;;5094218;28;20450;-83
2024/02/22 10:12:30;;;;;;;9.73;3.47;;;22.80;61.00;;;;;;5094085;28;20591;-83
2024/02/22 10:14:57;;;;;;;7.50;3.70;;;22.90;61.10;;;;;;5094478;28;20439;-84
2024/02/22 10:17:25;;;;;;;7.63;3.57;;;22.90;61.20;;;;;;5094621;28;20443;-84
2024/02/22 10:19:59;;;;;;;6.43;3.23;;;22.90;61.20;;;;;;5094889;28;20450;-89
2024/02/22 10:22:29;;;;;;;13.03;3.50;;;22.90;61.10;;;;;;5093944;28;20439;-91
2024/02/22 10:25:07;;;;;;;6.67;3.40;;;22.90;61.10;;;;;;5095049;28;20446;-85
2024/02/22 10:27:36;;;;;;;10.87;3.13;;;22.90;60.90;;;;;;5094121;28;20994;-83
2024/02/22 10:30:09;;;;;;;9.33;3.90;;;23.00;61.40;;;;;;5094303;28;20435;-83
2024/02/22 10:32:39;;;;;;;8.00;3.40;;;22.90;61.00;;;;;;5095540;28;20514;-81
2024/02/22 10:35:07;;;;;;;7.30;2.60;;;22.90;61.30;;;;;;5098509;28;20538;-91
2024/02/22 10:37:36;;;;;;;5.27;2.90;;;22.90;61.30;;;;;;5098661;28;20442;-91
2024/02/22 10:40:05;;;;;;;7.23;3.07;;;22.90;61.10;;;;;;5100468;28;20475;-94
2024/02/22 10:42:33;;;;;;;5.30;3.20;;;22.90;61.00;;;;;;5101356;28;20447;-91
2024/02/22 10:51:05;;;;;;;9.33;2.73;;;23.10;61.40;;;;;;5089438;28;20458;-80
2024/02/22 10:53:37;;;;;;;7.60;3.00;;;23.10;61.30;;;;;;5090903;28;20432;-79
2024/02/22 10:56:06;;;;;;;15.43;3.00;;;23.00;61.00;;;;;;5090864;28;20427;-81
2024/02/22 10:58:34;;;;;;;6.07;2.67;;;23.00;61.90;;;;;;5090576;28;20439;-80
2024/02/22 11:01:05;;;;;;;3.80;2.27;;;23.00;61.00;;;;;;5093090;28;20439;-86
2024/02/22 11:03:33;;;;;;;5.70;2.93;;;23.00;60.90;;;;;;5094438;28;20431;-86
2024/02/22 11:16:16;;;;;;;7.53;3.10;;;23.10;61.40;;;;;;5010285;28;20430;-83
2024/02/22 11:18:50;;;;;;;6.53;2.80;;;23.10;61.40;;;;;;5020141;28;20926;-93
2024/02/22 11:21:17;;;;;;;6.87;2.73;;;23.10;61.30;;;;;;5104302;28;20458;-87
2024/02/22 11:40:36;;;;;;;4.20;2.30;;;23.30;61.80;;;;;;5071817;28;20423;-83
2024/02/22 11:43:05;;;;;;;3.33;1.60;;;23.30;61.90;;;;;;5071034;28;20436;-83
2024/02/22 11:45:34;;;;;;;5.60;2.73;;;23.30;62.00;;;;;;5071635;28;20563;-91
2024/02/22 11:48:01;;;;;;;7.33;2.10;;;23.30;62.10;;;;;;5075308;28;20470;-86
2024/02/22 11:50:30;;;;;;;6.37;1.93;;;23.20;62.10;;;;;;5074613;28;20603;-92
2024/02/22 11:52:58;;;;;;;9.93;1.97;;;23.20;61.10;;;;;;5075256;28;20541;-86
2024/02/22 11:55:25;;;;;;;14.67;1.80;;;23.10;60.80;;;;;;5076291;28;20444;-94
2024/02/22 11:57:52;;;;;;;3.93;2.17;;;23.00;60.80;;;;;;5075386;28;20447;-92
2024/02/22 12:00:51;;;;;;;5.70;1.77;;;23.00;61.60;;;;;;5074851;28;20531;-90
2024/02/22 12:03:18;;;;;;;4.40;2.20;;;23.10;62.10;;;;;;5053822;28;20452;-91
2024/02/22 12:26:17;;;;;;;8.17;1.80;;;23.30;62.30;;;;;;4942024;29;20486;-82
2024/02/22 12:28:49;;;;;;;3.17;1.80;;;23.50;61.90;;;;;;4937329;29;20498;-80
2024/02/22 12:31:18;;;;;;;7.30;2.10;;;23.50;62.30;;;;;;4986717;28;20436;-80
2024/02/22 12:33:45;;;;;;;5.03;1.40;;;23.40;62.60;;;;;;5039441;28;20445;-80
2024/02/22 12:36:13;;;;;;;4.80;1.77;;;23.40;62.80;;;;;;5063415;28;20464;-80
2024/02/22 12:38:40;;;;;;;2.80;1.40;;;23.40;62.90;;;;;;5074419;28;21042;-79
2024/02/22 12:41:06;;;;;;;2.53;1.73;;;23.40;63.00;;;;;;5073914;28;20436;-80
2024/02/22 12:43:33;;;;;;;4.87;1.90;;;23.50;63.10;;;;;;5074854;28;20971;-80
2024/02/22 12:46:02;;;;;;;7.10;1.90;;;23.50;63.20;;;;;;5078763;28;20453;-80
2024/02/22 12:48:29;;;;;;;5.00;1.63;;;23.50;63.40;;;;;;5072539;28;20527;-80
2024/02/22 12:50:56;;;;;;;3.13;1.10;;;23.50;63.50;;;;;;5092402;28;20469;-83
2024/02/22 12:53:23;;;;;;;2.37;1.57;;;23.50;63.50;;;;;;5097787;28;20483;-80
2024/02/22 12:55:50;;;;;;;3.33;1.70;;;23.50;63.50;;;;;;5096915;28;20534;-80
2024/02/22 12:58:16;;;;;;;3.40;1.20;;;23.40;63.50;;;;;;5102233;28;20442;-80
2024/02/22 13:00:43;;;;;;;3.80;1.40;;;23.50;63.70;;;;;;5105457;28;20447;-83
2024/02/22 13:03:12;;;;;;;2.83;1.43;;;23.50;63.60;;;;;;5095902;28;20440;-86
2024/02/22 13:05:39;;;;;;;2.47;1.60;;;23.50;63.60;;;;;;5095427;28;20459;-86
2024/02/22 13:08:06;;;;;;;4.37;1.40;;;23.50;63.00;;;;;;5109223;28;20440;-91
2024/02/22 13:10:34;;;;;;;6.23;1.60;;;23.40;63.10;;;;;;5119209;28;20431;-87
2024/02/22 13:13:01;;;;;;;5.87;1.30;;;23.40;63.40;;;;;;5109871;28;21021;-87
2024/02/22 13:15:28;;;;;;;2.70;1.40;;;23.40;63.70;;;;;;5095185;28;20539;-88
2024/02/22 13:17:55;;;;;;;2.93;1.60;;;23.50;63.60;;;;;;5094940;28;20542;-87
2024/02/22 13:20:23;;;;;;;2.33;1.20;;;23.50;63.80;;;;;;5094897;28;20448;-89
2024/02/22 13:22:50;;;;;;;4.37;1.33;;;23.50;63.60;;;;;;5094316;28;20568;-87
2024/02/22 13:25:17;;;;;;;5.07;1.30;;;23.50;63.70;;;;;;5095032;28;20451;-88
2024/02/22 13:27:45;;;;;;;4.53;1.30;;;23.50;63.90;;;;;;5095397;28;20444;-89
2024/02/22 13:30:14;;;;;;;2.47;1.30;;;23.40;64.00;;;;;;5094943;28;20443;-89
2024/02/22 13:32:44;;;;;;;2.00;1.40;;;23.40;64.00;;;;;;5094619;28;20529;-91
2024/02/22 13:35:11;;;;;;;4.07;1.30;;;23.40;64.00;;;;;;5094844;28;20493;-94
2024/02/22 13:37:39;;;;;;;2.37;1.13;;;23.40;64.00;;;;;;5095483;28;20443;-90
2024/02/22 13:40:09;;;;;;;4.23;1.30;;;23.40;64.00;;;;;;5094638;28;20455;-90